createdAt,value
2023-11-07T00:01:30.419Z,21.85
2023-11-07T00:03:58.684Z,21.77
2023-11-07T00:06:26.445Z,21.52
2023-11-07T00:08:55.507Z,21.58
2023-11-07T00:11:23.190Z,20.88
2023-11-07T00:13:51.654Z,24.95
2023-11-07T00:16:19.915Z,22.33
2023-11-07T00:18:48.803Z,26.60
2023-11-07T00:21:16.353Z,27.48
2023-11-07T00:23:43.972Z,27.85
2023-11-07T00:26:11.625Z,27.20
2023-11-07T00:28:44.706Z,29.13
2023-11-07T00:31:12.291Z,26.23
2023-11-07T00:33:39.926Z,27.48
2023-11-07T00:36:07.979Z,28.85
2023-11-07T00:38:35.550Z,25.63
2023-11-07T00:41:04.879Z,26.45
2023-11-07T00:43:32.652Z,27.42
2023-11-07T00:46:00.111Z,27.98
2023-11-07T00:48:28.062Z,25.88
2023-11-07T00:50:56.125Z,24.05
2023-11-07T00:53:24.609Z,28.48
2023-11-07T00:55:52.161Z,25.08
2023-11-07T00:58:23.029Z,25.80
2023-11-07T01:00:51.142Z,28.20
2023-11-07T01:03:19.947Z,23.75
2023-11-07T01:05:47.720Z,25.27
2023-11-07T01:08:15.789Z,24.02
2023-11-07T01:10:43.249Z,24.77
2023-11-07T01:13:10.836Z,22.38
2023-11-07T01:15:38.527Z,21.70
2023-11-07T01:18:06.802Z,16.65
2023-11-07T01:20:34.940Z,15.38
2023-11-07T01:23:02.905Z,16.42
2023-11-07T01:25:30.684Z,18.23
2023-11-07T01:27:58.329Z,24.55
2023-11-07T01:30:25.980Z,21.15
2023-11-07T01:32:53.963Z,20.05
2023-11-07T01:35:21.698Z,14.45
2023-11-07T01:37:49.751Z,13.18
2023-11-07T01:40:17.685Z,12.27
2023-11-07T01:42:45.721Z,11.00
2023-11-07T01:45:13.696Z,14.57
2023-11-07T01:47:42.108Z,20.13
2023-11-07T01:50:13.836Z,18.60
2023-11-07T01:52:42.908Z,20.30
2023-11-07T01:55:14.109Z,20.63
2023-11-07T01:57:43.553Z,12.25
2023-11-07T02:00:13.850Z,12.23
2023-11-07T02:02:42.397Z,13.40
2023-11-07T02:05:13.966Z,13.85
2023-11-07T02:07:41.683Z,15.15
2023-11-07T02:10:12.768Z,20.45
2023-11-07T02:12:40.508Z,21.13
2023-11-07T02:15:24.324Z,24.40
2023-11-07T02:17:52.406Z,25.67
2023-11-07T02:20:20.166Z,20.90
2023-11-07T02:22:50.995Z,20.80
2023-11-07T02:25:20.309Z,19.55
2023-11-07T02:27:47.988Z,19.70
2023-11-07T02:30:16.139Z,22.10
2023-11-07T02:32:44.742Z,25.15
2023-11-07T02:35:13.324Z,25.88
2023-11-07T02:37:41.793Z,24.23
2023-11-07T02:40:12.624Z,24.27
2023-11-07T02:42:40.156Z,26.85
2023-11-07T02:45:08.416Z,21.83
2023-11-07T02:47:41.697Z,19.65
2023-11-07T02:50:12.118Z,23.15
2023-11-07T02:52:40.239Z,22.20
2023-11-07T02:55:08.860Z,24.13
2023-11-07T02:57:36.992Z,22.10
2023-11-07T03:00:05.005Z,22.02
2023-11-07T03:02:36.836Z,28.03
2023-11-07T03:05:05.914Z,30.97
2023-11-07T03:07:34.165Z,29.70
2023-11-07T03:10:02.569Z,28.50
2023-11-07T03:12:30.888Z,25.73
2023-11-07T03:14:58.972Z,24.50
2023-11-07T03:17:26.928Z,26.70
2023-11-07T03:19:54.915Z,24.60
2023-11-07T03:22:27.784Z,25.37
2023-11-07T03:24:55.635Z,21.90
2023-11-07T03:27:23.603Z,23.30
2023-11-07T03:29:51.353Z,22.87
2023-11-07T03:32:20.965Z,24.77
2023-11-07T03:34:48.803Z,30.20
2023-11-07T03:37:16.431Z,25.80
2023-11-07T03:39:44.198Z,23.63
2023-11-07T03:42:16.387Z,26.47
2023-11-07T03:44:47.510Z,23.23
2023-11-07T03:47:15.733Z,20.88
2023-11-07T03:49:46.278Z,26.27
2023-11-07T03:52:14.130Z,23.65
2023-11-07T03:54:42.694Z,25.23
2023-11-07T03:57:10.331Z,23.47
2023-11-07T03:59:38.524Z,23.53
2023-11-07T04:02:06.637Z,23.37
2023-11-07T04:04:35.631Z,25.10
2023-11-07T04:07:03.062Z,23.63
2023-11-07T04:09:30.573Z,20.27
2023-11-07T04:11:58.496Z,19.20
2023-11-07T04:14:26.314Z,22.53
2023-11-07T04:16:54.029Z,22.20
2023-11-07T04:19:21.723Z,19.00
2023-11-07T04:21:49.974Z,18.55
2023-11-07T04:24:17.792Z,21.67
2023-11-07T04:26:45.483Z,24.80
2023-11-07T04:29:13.217Z,17.53
2023-11-07T04:31:42.079Z,19.17
2023-11-07T04:34:11.463Z,20.73
2023-11-07T04:36:44.091Z,17.17
2023-11-07T04:39:13.877Z,20.38
2023-11-07T04:41:43.142Z,19.40
2023-11-07T04:44:12.572Z,24.47
2023-11-07T04:46:41.383Z,23.70
2023-11-07T04:49:09.558Z,25.03
2023-11-07T04:51:37.868Z,24.67
2023-11-07T04:54:05.718Z,25.02
2023-11-07T04:56:33.904Z,19.57
2023-11-07T04:59:01.656Z,23.30
2023-11-07T05:01:29.261Z,22.13
2023-11-07T05:03:57.035Z,18.37
2023-11-07T05:06:25.268Z,22.77
2023-11-07T05:08:52.911Z,21.73
2023-11-07T05:11:20.717Z,26.83
2023-11-07T05:13:49.509Z,31.47
2023-11-07T05:16:18.022Z,25.37
2023-11-07T05:18:45.756Z,20.37
2023-11-07T05:21:13.592Z,17.33
2023-11-07T05:23:41.210Z,14.07
2023-11-07T05:26:10.245Z,15.60
2023-11-07T05:28:40.831Z,26.37
2023-11-07T05:31:08.371Z,29.97
2023-11-07T05:33:37.779Z,30.93
2023-11-07T05:36:05.551Z,32.73
2023-11-07T05:38:33.186Z,34.77
2023-11-07T05:41:00.985Z,32.60
2023-11-07T05:43:28.969Z,31.10
2023-11-07T05:45:56.959Z,37.80
2023-11-07T05:48:26.072Z,36.60
2023-11-07T05:50:54.060Z,39.17
2023-11-07T05:53:21.757Z,38.00
2023-11-07T05:55:49.720Z,42.30
2023-11-07T05:58:18.206Z,40.30
2023-11-07T06:00:46.052Z,38.33
2023-11-07T06:03:14.901Z,39.87
2023-11-07T06:05:46.871Z,36.33
2023-11-07T06:08:14.801Z,37.57
2023-11-07T06:10:42.766Z,35.00
2023-11-07T06:13:10.293Z,30.63
2023-11-07T06:15:39.213Z,33.33
2023-11-07T06:18:07.959Z,32.43
2023-11-07T06:20:36.025Z,30.90
2023-11-07T06:23:03.729Z,32.50
2023-11-07T06:25:31.206Z,28.50
2023-11-07T06:27:59.186Z,28.85
2023-11-07T06:30:31.226Z,24.27
2023-11-07T06:32:59.684Z,23.33
2023-11-07T06:35:27.771Z,24.73
2023-11-07T06:37:55.456Z,21.90
2023-11-07T06:40:24.955Z,21.80
2023-11-07T06:42:54.116Z,23.48
2023-11-07T06:45:21.968Z,23.30
2023-11-07T06:47:49.844Z,24.73
2023-11-07T06:50:17.920Z,29.48
2023-11-07T06:52:52.620Z,34.40
2023-11-07T06:55:26.797Z,31.15
2023-11-07T06:57:56.704Z,29.45
2023-11-07T07:00:27.099Z,24.73
2023-11-07T07:02:57.691Z,28.77
2023-11-07T07:05:26.937Z,28.10
2023-11-07T07:07:57.915Z,25.75
2023-11-07T07:10:26.432Z,26.55
2023-11-07T07:12:58.044Z,24.15
2023-11-07T07:15:26.228Z,20.60
2023-11-07T07:17:55.422Z,23.15
2023-11-07T07:20:24.800Z,20.58
2023-11-07T07:22:54.871Z,22.13
2023-11-07T07:25:28.130Z,20.92
2023-11-07T07:27:56.681Z,22.90
2023-11-07T07:30:27.686Z,20.45
2023-11-07T07:32:55.704Z,21.23
2023-11-07T07:35:23.736Z,19.90
2023-11-07T07:37:55.402Z,21.77
2023-11-07T07:40:27.721Z,21.27
2023-11-07T07:42:56.204Z,23.10
2023-11-07T07:45:28.361Z,28.63
2023-11-07T07:47:58.487Z,26.02
2023-11-07T07:50:26.842Z,27.13
2023-11-07T07:52:57.786Z,27.00
2023-11-07T07:55:34.958Z,26.90
2023-11-07T07:58:04.821Z,24.20
2023-11-07T08:00:32.898Z,24.95
2023-11-07T08:03:06.863Z,22.83
2023-11-07T08:05:41.468Z,20.25
2023-11-07T08:08:10.888Z,26.42
2023-11-07T08:10:40.093Z,17.00
2023-11-07T08:13:11.977Z,19.02
2023-11-07T08:15:39.886Z,15.25
2023-11-07T08:18:08.947Z,16.25
2023-11-07T08:20:38.496Z,15.68
2023-11-07T08:23:06.644Z,13.48
2023-11-07T08:25:35.624Z,13.40
2023-11-07T08:28:11.049Z,14.68
2023-11-07T08:30:39.537Z,16.23
2023-11-07T08:33:09.046Z,16.45
2023-11-07T08:35:38.104Z,20.00
2023-11-07T08:38:06.012Z,16.88
2023-11-07T08:40:33.907Z,13.82
2023-11-07T08:43:01.804Z,17.42
2023-11-07T08:45:30.153Z,15.90
2023-11-07T08:47:59.053Z,16.92
2023-11-07T08:50:28.985Z,13.88
2023-11-07T08:52:59.202Z,11.60
2023-11-07T08:55:27.573Z,15.05
2023-11-07T08:57:55.272Z,12.93
2023-11-07T09:00:24.527Z,9.65
2023-11-07T09:02:53.967Z,11.25
2023-11-07T09:05:23.874Z,10.90
2023-11-07T09:07:51.913Z,9.52
2023-11-07T09:10:21.792Z,11.32
2023-11-07T09:12:49.736Z,9.88
2023-11-07T09:15:21.670Z,12.88
2023-11-07T09:17:49.814Z,7.00
2023-11-07T09:20:18.269Z,6.82
2023-11-07T09:22:47.920Z,5.30
2023-11-07T09:25:15.578Z,5.25
2023-11-07T09:27:43.508Z,4.18
2023-11-07T09:30:12.717Z,3.85
2023-11-07T09:32:41.587Z,5.75
2023-11-07T09:35:09.739Z,4.28
2023-11-07T09:37:41.325Z,6.53
2023-11-07T09:40:22.038Z,5.10
2023-11-07T09:42:52.610Z,6.68
2023-11-07T09:45:36.447Z,6.30
2023-11-07T09:48:04.485Z,4.35
2023-11-07T09:50:35.172Z,6.15
2023-11-07T09:53:03.324Z,3.38
2023-11-07T09:55:33.260Z,4.22
2023-11-07T09:58:15.177Z,3.72
2023-11-07T10:00:46.149Z,7.28
2023-11-07T10:03:15.436Z,5.70
2023-11-07T10:05:44.360Z,3.85
2023-11-07T10:08:11.868Z,3.55
2023-11-07T10:10:41.495Z,4.43
2023-11-07T10:13:12.058Z,6.35
2023-11-07T10:15:40.526Z,4.82
2023-11-07T10:18:12.979Z,4.00
2023-11-07T10:20:56.618Z,3.58
2023-11-07T10:23:25.378Z,2.92
2023-11-07T10:25:53.114Z,4.20
2023-11-07T10:28:24.181Z,5.50
2023-11-07T10:30:52.442Z,3.13
2023-11-07T10:33:26.238Z,4.15
2023-11-07T10:35:57.208Z,5.30
2023-11-07T10:38:25.982Z,4.78
2023-11-07T10:40:53.988Z,3.88
2023-11-07T10:43:36.276Z,3.42
2023-11-07T10:46:08.147Z,3.30
2023-11-07T10:48:43.197Z,3.15
2023-11-07T10:51:12.980Z,4.35
2023-11-07T10:53:44.946Z,4.70
2023-11-07T10:56:14.903Z,3.97
2023-11-07T10:58:45.470Z,5.85
2023-11-07T11:01:14.685Z,4.05
2023-11-07T11:03:43.679Z,5.20
2023-11-07T11:06:15.927Z,3.67
2023-11-07T11:08:46.585Z,4.53
2023-11-07T11:11:15.903Z,6.20
2023-11-07T11:13:43.762Z,4.63
2023-11-07T11:16:12.244Z,3.33
2023-11-07T11:19:13.185Z,4.95
2023-11-07T11:22:01.141Z,5.22
2023-11-07T11:24:32.258Z,3.63
2023-11-07T11:27:15.377Z,3.38
2023-11-07T11:29:47.677Z,3.53
2023-11-07T11:32:25.387Z,2.97
2023-11-07T11:34:58.911Z,5.57
2023-11-07T11:37:26.836Z,2.33
2023-11-07T11:39:55.727Z,3.40
2023-11-07T11:42:23.383Z,5.50
2023-11-07T11:45:11.253Z,2.75
2023-11-07T11:47:54.061Z,3.50
2023-11-07T11:50:22.230Z,5.57
2023-11-07T11:52:50.391Z,6.03
2023-11-07T11:55:19.018Z,4.05
2023-11-07T11:58:21.660Z,5.30
2023-11-07T12:00:51.491Z,7.88
2023-11-07T12:03:20.866Z,2.20
2023-11-07T12:06:05.445Z,4.55
2023-11-07T12:08:36.890Z,3.63
2023-11-07T12:11:06.290Z,3.22
2023-11-07T12:13:37.064Z,2.13
2023-11-07T12:16:15.181Z,3.65
2023-11-07T12:18:43.231Z,6.50
2023-11-07T12:21:10.905Z,4.20
2023-11-07T12:23:40.122Z,4.40
2023-11-07T12:26:10.201Z,2.10
2023-11-07T12:28:43.449Z,4.72
2023-11-07T12:31:22.912Z,5.10
2023-11-07T12:33:53.335Z,3.30
2023-11-07T12:36:21.256Z,5.75
2023-11-07T12:38:49.098Z,3.88
2023-11-07T12:41:20.051Z,6.00
2023-11-07T12:43:47.926Z,4.28
2023-11-07T12:46:18.245Z,5.97
2023-11-07T12:48:48.784Z,3.58
2023-11-07T12:51:23.370Z,3.42
2023-11-07T12:53:51.580Z,5.00
2023-11-07T12:56:20.439Z,6.60
2023-11-07T12:58:48.251Z,2.60
2023-11-07T13:01:19.104Z,2.95
2023-11-07T13:03:46.857Z,3.50
2023-11-07T13:06:20.949Z,4.90
2023-11-07T13:08:49.052Z,2.28
2023-11-07T13:11:20.824Z,2.67
2023-11-07T13:13:50.645Z,3.20
2023-11-07T13:16:19.262Z,4.88
2023-11-07T13:18:51.184Z,3.33
2023-11-07T13:21:19.100Z,3.88
2023-11-07T13:23:48.628Z,7.32
2023-11-07T13:26:16.816Z,5.30
2023-11-07T13:28:45.675Z,9.48
2023-11-07T13:31:14.222Z,4.10
2023-11-07T13:33:43.771Z,3.65
2023-11-07T13:36:12.662Z,2.95
2023-11-07T13:38:40.232Z,3.00
2023-11-07T13:41:08.275Z,5.82
2023-11-07T13:43:36.547Z,3.85
2023-11-07T13:46:04.988Z,4.43
2023-11-07T13:48:35.158Z,3.13
2023-11-07T13:51:03.348Z,3.53
2023-11-07T13:53:31.239Z,5.85
2023-11-07T13:56:01.307Z,4.47
2023-11-07T13:58:29.097Z,2.58
2023-11-07T14:00:58.224Z,4.20
2023-11-07T14:03:26.132Z,3.72
2023-11-07T14:05:55.189Z,3.75
2023-11-07T14:08:22.936Z,4.15
2023-11-07T14:10:50.922Z,7.40
2023-11-07T14:13:20.305Z,2.83
2023-11-07T14:15:51.776Z,5.38
2023-11-07T14:18:25.670Z,7.15
2023-11-07T14:20:59.906Z,4.72
2023-11-07T14:23:29.738Z,4.57
2023-11-07T14:25:57.827Z,3.88
2023-11-07T14:28:25.666Z,6.90
2023-11-07T14:30:54.288Z,5.68
2023-11-07T14:33:22.372Z,4.88
2023-11-07T14:35:50.239Z,7.20
2023-11-07T14:38:21.388Z,9.63
2023-11-07T14:40:50.590Z,8.77
2023-11-07T14:43:18.630Z,4.35
2023-11-07T14:45:46.969Z,5.65
2023-11-07T14:48:17.698Z,7.10
2023-11-07T14:50:46.303Z,3.42
2023-11-07T14:53:19.994Z,4.40
2023-11-07T14:55:47.726Z,5.60
2023-11-07T14:58:17.294Z,6.63
2023-11-07T15:00:45.829Z,3.88
2023-11-07T15:03:16.268Z,4.88
2023-11-07T15:05:45.631Z,5.50
2023-11-07T15:08:13.863Z,6.07
2023-11-07T15:10:42.234Z,3.45
2023-11-07T15:13:10.575Z,4.75
2023-11-07T15:15:38.421Z,13.48
2023-11-07T15:18:07.006Z,4.07
2023-11-07T15:20:35.354Z,6.30
2023-11-07T15:23:03.617Z,4.53
2023-11-07T15:25:36.425Z,3.60
2023-11-07T15:28:04.964Z,3.88
2023-11-07T15:30:33.152Z,6.68
2023-11-07T15:33:02.493Z,8.50
2023-11-07T15:35:37.037Z,9.43
2023-11-07T15:38:09.832Z,8.25
2023-11-07T15:40:41.054Z,7.72
2023-11-07T15:43:10.179Z,6.70
2023-11-07T15:45:38.506Z,6.22
2023-11-07T15:48:09.636Z,8.70
2023-11-07T15:50:39.014Z,10.32
2023-11-07T15:53:09.200Z,10.43
2023-11-07T15:55:38.480Z,8.23
2023-11-07T15:58:06.850Z,9.02
2023-11-07T16:00:35.623Z,9.43
2023-11-07T16:03:05.390Z,9.95
2023-11-07T16:05:36.434Z,8.55
2023-11-07T16:08:06.289Z,10.30
2023-11-07T16:10:34.580Z,10.68
2023-11-07T16:13:05.850Z,18.42
2023-11-07T16:15:34.909Z,10.88
2023-11-07T16:18:03.585Z,12.35
2023-11-07T16:20:31.457Z,9.55
2023-11-07T16:22:59.034Z,10.90
2023-11-07T16:25:28.111Z,17.13
2023-11-07T16:27:56.112Z,17.20
2023-11-07T16:30:23.829Z,16.17
2023-11-07T16:32:52.289Z,13.50
2023-11-07T16:35:20.072Z,14.05
2023-11-07T16:37:47.878Z,10.90
2023-11-07T16:40:17.919Z,13.50
2023-11-07T16:42:46.521Z,15.85
2023-11-07T16:45:16.122Z,14.48
2023-11-07T16:47:44.485Z,14.20
2023-11-07T16:50:15.807Z,13.35
2023-11-07T16:52:43.368Z,10.27
2023-11-07T16:55:20.216Z,12.90
2023-11-07T16:57:48.769Z,13.25
2023-11-07T17:00:19.961Z,10.00
2023-11-07T17:02:49.050Z,13.73
2023-11-07T17:05:17.200Z,19.23
2023-11-07T17:07:45.534Z,12.60
2023-11-07T17:10:13.366Z,16.75
2023-11-07T17:12:41.070Z,11.25
2023-11-07T17:15:09.820Z,13.23
2023-11-07T17:17:38.092Z,15.52
2023-11-07T17:20:07.640Z,15.45
2023-11-07T17:22:37.588Z,14.10
2023-11-07T17:25:06.050Z,15.07
2023-11-07T17:27:34.043Z,14.38
2023-11-07T17:30:01.814Z,16.70
2023-11-07T17:32:29.681Z,16.35
2023-11-07T17:35:00.960Z,17.02
2023-11-07T17:37:30.249Z,20.00
2023-11-07T17:39:59.208Z,27.23
2023-11-07T17:42:27.412Z,19.50
2023-11-07T17:44:55.055Z,12.63
2023-11-07T17:47:23.940Z,15.50
2023-11-07T17:49:51.828Z,23.33
2023-11-07T17:52:19.566Z,18.75
2023-11-07T17:54:47.339Z,21.10
2023-11-07T17:57:15.102Z,21.45
2023-11-07T17:59:43.967Z,24.08
2023-11-07T18:02:13.221Z,17.38
2023-11-07T18:04:41.613Z,22.15
2023-11-07T18:07:09.659Z,18.08
2023-11-07T18:09:37.550Z,23.77
2023-11-07T18:12:05.200Z,28.85
2023-11-07T18:14:32.948Z,25.45
2023-11-07T18:17:00.941Z,19.75
2023-11-07T18:19:29.524Z,20.45
2023-11-07T18:21:58.532Z,23.42
2023-11-07T18:24:26.322Z,24.13
2023-11-07T18:26:54.668Z,21.60
2023-11-07T18:29:22.254Z,21.77
2023-11-07T18:31:50.183Z,29.45
2023-11-07T18:34:23.252Z,21.00
2023-11-07T18:37:01.785Z,33.50
2023-11-07T18:39:30.542Z,25.77
2023-11-07T18:41:58.979Z,28.52
2023-11-07T18:44:35.700Z,29.63
2023-11-07T18:47:04.614Z,33.15
2023-11-07T18:49:35.410Z,30.33
2023-11-07T18:52:04.096Z,35.67
2023-11-07T18:54:32.039Z,32.60
2023-11-07T18:56:59.973Z,32.75
2023-11-07T18:59:34.613Z,33.67
2023-11-07T19:02:06.929Z,30.83
2023-11-07T19:04:39.401Z,31.23
2023-11-07T19:07:09.293Z,31.50
2023-11-07T19:09:37.385Z,34.92
2023-11-07T19:12:06.011Z,34.20
2023-11-07T19:14:33.575Z,37.30
2023-11-07T19:17:01.773Z,42.00
2023-11-07T19:19:30.159Z,36.45
2023-11-07T19:21:59.296Z,35.58
2023-11-07T19:24:27.616Z,36.63
2023-11-07T19:26:55.772Z,38.08
2023-11-07T19:29:24.706Z,39.53
2023-11-07T19:31:53.646Z,35.55
2023-11-07T19:34:23.430Z,50.63
2023-11-07T19:36:52.877Z,40.88
2023-11-07T19:39:22.179Z,41.35
2023-11-07T19:41:50.001Z,37.08
2023-11-07T19:44:17.717Z,40.42
2023-11-07T19:46:45.606Z,34.88
2023-11-07T19:49:13.769Z,39.70
2023-11-07T19:51:41.943Z,30.55
2023-11-07T19:54:12.302Z,30.02
2023-11-07T19:56:41.859Z,32.42
2023-11-07T19:59:12.307Z,31.20
2023-11-07T20:01:41.192Z,35.78
2023-11-07T20:04:09.903Z,30.60
2023-11-07T20:06:38.536Z,28.27
2023-11-07T20:09:07.498Z,33.15
2023-11-07T20:11:37.926Z,30.05
2023-11-07T20:14:06.342Z,28.27
2023-11-07T20:16:34.219Z,34.35
2023-11-07T20:19:03.753Z,30.67
2023-11-07T20:21:31.510Z,29.73
2023-11-07T20:23:59.340Z,32.78
2023-11-07T20:26:27.103Z,32.80
2023-11-07T20:28:55.010Z,31.65
2023-11-07T20:31:23.348Z,37.17
2023-11-07T20:33:51.314Z,33.38
2023-11-07T20:36:20.659Z,31.45
2023-11-07T20:38:49.085Z,33.08
2023-11-07T20:41:17.882Z,40.15
2023-11-07T20:43:47.806Z,42.05
2023-11-07T20:46:30.812Z,58.95
2023-11-07T20:49:03.799Z,65.18
2023-11-07T20:51:33.280Z,66.47
2023-11-07T20:54:01.481Z,74.93
2023-11-07T20:56:30.755Z,83.40
2023-11-07T20:58:59.067Z,82.68
2023-11-07T21:01:27.999Z,94.07
2023-11-07T21:03:59.765Z,76.03
2023-11-07T21:06:28.191Z,77.38
2023-11-07T21:08:56.920Z,75.82
2023-11-07T21:11:24.650Z,78.85
2023-11-07T21:13:52.993Z,68.43
2023-11-07T21:16:20.974Z,72.63
2023-11-07T21:18:49.394Z,79.97
2023-11-07T21:21:17.619Z,83.57
2023-11-07T21:23:45.994Z,72.38
2023-11-07T21:26:15.001Z,74.35
2023-11-07T21:28:42.881Z,74.57
2023-11-07T21:31:11.183Z,75.38
2023-11-07T21:33:40.295Z,76.03
2023-11-07T21:36:08.492Z,73.72
2023-11-07T21:38:36.399Z,74.25
2023-11-07T21:41:07.824Z,70.43
2023-11-07T21:43:35.692Z,73.72
2023-11-07T21:46:04.408Z,71.28
2023-11-07T21:48:32.227Z,74.32
2023-11-07T21:50:59.996Z,67.18
2023-11-07T21:53:28.160Z,65.78
2023-11-07T21:55:57.350Z,74.57
2023-11-07T21:58:26.352Z,71.82
2023-11-07T22:00:54.128Z,79.45
2023-11-07T22:03:21.823Z,71.47
2023-11-07T22:05:49.998Z,77.50
2023-11-07T22:08:17.728Z,75.68
2023-11-07T22:10:45.405Z,77.22
2023-11-07T22:13:13.064Z,78.10
2023-11-07T22:15:41.374Z,82.40
2023-11-07T22:18:13.166Z,74.22
2023-11-07T22:20:40.826Z,79.18
2023-11-07T22:23:08.494Z,91.18
2023-11-07T22:25:36.280Z,80.63
2023-11-07T22:28:05.657Z,81.75
2023-11-07T22:30:33.452Z,77.55
2023-11-07T22:33:01.460Z,76.30
2023-11-07T22:35:34.943Z,77.03
2023-11-07T22:38:06.318Z,81.10
2023-11-07T22:40:34.336Z,83.18
2023-11-07T22:43:07.200Z,82.15
2023-11-07T22:45:37.062Z,81.18
2023-11-07T22:48:05.683Z,80.82
2023-11-07T22:50:33.285Z,77.18
2023-11-07T22:53:01.025Z,81.50
2023-11-07T22:55:29.347Z,87.93
2023-11-07T22:57:56.914Z,81.20
2023-11-07T23:00:40.378Z,80.15
2023-11-07T23:03:12.377Z,82.72
2023-11-07T23:05:41.178Z,93.97
2023-11-07T23:08:12.275Z,87.72
2023-11-07T23:10:41.735Z,89.05
2023-11-07T23:13:09.369Z,91.90
2023-11-07T23:15:40.500Z,90.25
2023-11-07T23:18:09.293Z,94.30
2023-11-07T23:20:41.470Z,92.93
2023-11-07T23:23:10.781Z,85.55
2023-11-07T23:25:38.504Z,83.07
2023-11-07T23:28:06.177Z,86.78
2023-11-07T23:30:34.529Z,81.22
2023-11-07T23:33:02.443Z,83.45
2023-11-07T23:35:30.275Z,87.30
2023-11-07T23:37:57.944Z,86.45
2023-11-07T23:40:26.318Z,87.03
2023-11-07T23:42:54.070Z,84.63
2023-11-07T23:45:23.536Z,88.40
2023-11-07T23:47:51.483Z,96.15
2023-11-07T23:50:19.524Z,88.88
2023-11-07T23:52:47.765Z,80.80
2023-11-07T23:55:15.301Z,85.90
2023-11-07T23:57:43.588Z,72.97
